Time;durP1;ratioP1;P1;durP2;ratioP2;P2;SDS_P1;SDS_P2;PMS_P1;PMS_P2;Temp;Humidity;BMP_temperature;BMP_pressure;BME280_temperature;BME280_humidity;BME280_pressure;Samples;Min_cycle;Max_cycle;Signal;HPM_P1;HPM_P2
2023/10/21 00:00:00;;;;;;;51.78;23.25;;;;;;;13.46;100.00;98081.97;5074213;28;20466;-78
2023/10/21 00:02:28;;;;;;;56.13;23.35;;;;;;;13.50;100.00;98093.06;5071379;28;20052;-78
2023/10/21 00:04:54;;;;;;;51.85;23.52;;;;;;;13.50;100.00;98102.44;5073956;28;20116;-77
2023/10/21 00:07:22;;;;;;;55.35;23.80;;;;;;;13.47;100.00;98111.44;5075789;28;20189;-77
2023/10/21 00:09:48;;;;;;;49.67;23.27;;;;;;;13.45;100.00;98116.97;5075296;28;20394;-80
2023/10/21 00:12:16;;;;;;;54.83;24.70;;;;;;;13.44;100.00;98113.31;5074598;28;20054;-78
2023/10/21 00:14:43;;;;;;;54.40;24.75;;;;;;;13.39;100.00;98088.44;5074297;28;20036;-80
2023/10/21 00:17:10;;;;;;;57.38;24.70;;;;;;;13.44;100.00;98089.63;5074376;28;20036;-80
2023/10/21 00:19:37;;;;;;;61.03;23.33;;;;;;;13.39;100.00;98076.22;5073115;28;20461;-78
2023/10/21 00:22:03;;;;;;;58.75;23.30;;;;;;;13.46;100.00;98081.19;5072971;28;20021;-79
2023/10/21 00:24:31;;;;;;;56.47;23.88;;;;;;;13.46;100.00;98087.72;5074099;28;20024;-80
2023/10/21 00:26:58;;;;;;;66.25;25.33;;;;;;;13.42;100.00;98072.97;5073987;28;20033;-79
2023/10/21 00:29:24;;;;;;;48.65;24.08;;;;;;;13.46;100.00;98075.47;5074633;28;20048;-79
2023/10/21 00:31:50;;;;;;;53.65;22.48;;;;;;;13.48;100.00;98081.41;5074035;28;20028;-77
2023/10/21 00:34:17;;;;;;;56.70;23.92;;;;;;;13.39;100.00;98068.34;5073846;28;20032;-79
2023/10/21 00:36:42;;;;;;;55.47;22.63;;;;;;;13.47;100.00;98089.25;5071769;28;20043;-77
2023/10/21 00:39:12;;;;;;;52.17;23.75;;;;;;;13.44;100.00;98101.84;5073618;28;20032;-79
2023/10/21 00:41:39;;;;;;;55.47;23.73;;;;;;;13.38;100.00;98098.41;5055728;28;20366;-80
2023/10/21 00:44:06;;;;;;;45.38;22.30;;;;;;;13.36;100.00;98108.88;5038798;28;20058;-79
2023/10/21 00:46:33;;;;;;;52.00;21.52;;;;;;;13.34;100.00;98126.66;5072858;28;20111;-81
2023/10/21 00:48:59;;;;;;;48.50;21.60;;;;;;;13.21;100.00;98106.72;5072150;28;20054;-78
2023/10/21 00:51:28;;;;;;;55.60;22.42;;;;;;;13.25;100.00;98112.06;5073332;28;20037;-79
2023/10/21 00:53:56;;;;;;;50.45;22.02;;;;;;;13.20;100.00;98105.16;5072960;28;20094;-78
2023/10/21 00:56:28;;;;;;;49.47;22.88;;;;;;;13.14;100.00;98119.66;5056493;28;20032;-80
2023/10/21 00:58:53;;;;;;;;;;;;;;;13.15;100.00;98129.03;5092117;28;20401;-80
2023/10/21 01:01:21;;;;;;;58.10;22.77;;;;;;;13.10;100.00;98135.69;5076042;28;20360;-79
2023/10/21 01:03:47;;;;;;;57.60;22.10;;;;;;;13.01;100.00;98136.97;5058026;28;20480;-80
2023/10/21 01:06:12;;;;;;;55.33;23.33;;;;;;;13.02;100.00;98143.47;5042303;28;20123;-81
2023/10/21 01:08:45;;;;;;;53.45;22.65;;;;;;;13.05;100.00;98165.28;5093864;28;20031;-79
2023/10/21 01:11:13;;;;;;;53.03;22.48;;;;;;;13.01;100.00;98159.91;5074516;28;20024;-80
2023/10/21 01:13:43;;;;;;;62.15;25.58;;;;;;;12.98;100.00;98169.66;5093880;28;20366;-79
2023/10/21 01:16:10;;;;;;;62.05;24.52;;;;;;;12.95;100.00;98176.50;5093381;28;20111;-78
2023/10/21 01:18:38;;;;;;;66.72;25.42;;;;;;;12.88;100.00;98185.81;5062365;28;20488;-80
2023/10/21 01:21:05;;;;;;;57.95;22.95;;;;;;;12.80;100.00;98189.97;5079069;28;20032;-79
2023/10/21 01:23:33;;;;;;;68.15;24.63;;;;;;;12.77;100.00;98196.78;5079708;28;20027;-78
2023/10/21 01:26:00;;;;;;;59.55;24.17;;;;;;;12.68;100.00;98201.69;5079356;28;20118;-80
2023/10/21 01:28:27;;;;;;;69.65;25.25;;;;;;;12.65;100.00;98197.06;5096811;28;20384;-80
2023/10/21 01:30:56;;;;;;;60.78;23.55;;;;;;;12.67;100.00;98210.84;5079107;28;20150;-80
2023/10/21 01:33:23;;;;;;;56.00;23.13;;;;;;;12.63;100.00;98208.34;5061747;28;20040;-78
2023/10/21 01:35:49;;;;;;;64.28;23.05;;;;;;;12.57;100.00;98198.31;5097039;28;20109;-78
2023/10/21 01:38:16;;;;;;;60.67;24.08;;;;;;;12.56;100.00;98206.16;5078879;28;20036;-79
2023/10/21 01:40:43;;;;;;;55.60;22.23;;;;;;;12.58;100.00;98206.38;5062106;28;20032;-79
2023/10/21 01:43:09;;;;;;;61.55;21.52;;;;;;;12.53;100.00;98207.28;5061987;28;20060;-79
2023/10/21 01:45:38;;;;;;;57.47;21.92;;;;;;;12.41;100.00;98211.72;5077869;28;20094;-77
2023/10/21 01:48:05;;;;;;;62.05;23.13;;;;;;;12.42;100.00;98207.53;5097262;28;20085;-79
2023/10/21 01:50:31;;;;;;;53.90;22.50;;;;;;;12.40;100.00;98220.91;5078550;28;20097;-79
2023/10/21 01:53:05;;;;;;;57.05;22.90;;;;;;;12.32;100.00;98205.66;5061639;28;20469;-79
2023/10/21 01:55:31;;;;;;;56.50;23.58;;;;;;;12.37;100.00;98216.25;5061707;28;20024;-78
2023/10/21 01:57:57;;;;;;;63.40;22.08;;;;;;;12.37;100.00;98217.03;5096133;28;20040;-79
2023/10/21 02:00:23;;;;;;;55.72;21.95;;;;;;;12.35;100.00;98221.75;5096272;28;20032;-80
2023/10/21 02:02:54;;;;;;;46.65;21.08;;;;;;;12.36;100.00;98226.94;5096048;28;20515;-79
2023/10/21 02:05:23;;;;;;;52.33;20.95;;;;;;;12.28;100.00;98220.34;5074433;28;20028;-79
2023/10/21 02:07:50;;;;;;;52.83;21.63;;;;;;;12.27;100.00;98216.72;5058098;28;20115;-79
2023/10/21 02:10:19;;;;;;;55.28;23.27;;;;;;;12.27;100.00;98222.44;5074671;28;20033;-78
2023/10/21 02:12:45;;;;;;;45.03;20.15;;;;;;;12.20;100.00;98217.41;5074823;28;20116;-79
2023/10/21 02:15:17;;;;;;;40.97;20.20;;;;;;;12.31;100.00;98244.25;5076413;28;20107;-80
2023/10/21 02:17:44;;;;;;;41.15;18.23;;;;;;;12.24;100.00;98252.19;5059432;28;20032;-80
2023/10/21 02:20:15;;;;;;;41.97;18.25;;;;;;;12.28;100.00;98269.81;5076217;28;20031;-80
2023/10/21 02:22:43;;;;;;;47.72;19.20;;;;;;;12.26;100.00;98254.47;5058961;28;20048;-77
2023/10/21 02:25:13;;;;;;;39.45;17.17;;;;;;;12.23;100.00;98242.06;5074850;28;20032;-77
2023/10/21 02:27:43;;;;;;;41.30;19.20;;;;;;;12.19;100.00;98247.38;5076007;28;20029;-79
2023/10/21 02:30:14;;;;;;;37.28;17.38;;;;;;;12.14;100.00;98251.13;5075200;28;20544;-78
2023/10/21 02:32:47;;;;;;;41.25;18.52;;;;;;;12.10;100.00;98267.09;5074678;28;20047;-83
2023/10/21 02:35:14;;;;;;;34.75;15.88;;;;;;;12.07;100.00;98268.19;5074735;28;20036;-79
2023/10/21 02:37:41;;;;;;;39.13;16.95;;;;;;;12.05;100.00;98270.84;5057784;28;20040;-78
2023/10/21 02:40:07;;;;;;;36.60;17.88;;;;;;;12.02;100.00;98278.44;5073919;28;20047;-80
2023/10/21 02:42:33;;;;;;;41.17;18.77;;;;;;;11.99;100.00;98279.56;5075936;28;20035;-79
2023/10/21 02:44:59;;;;;;;35.50;15.88;;;;;;;11.94;100.00;98268.22;5058459;28;20390;-77
2023/10/21 02:47:26;;;;;;;35.78;17.63;;;;;;;11.96;100.00;98269.19;5075352;28;20036;-78
2023/10/21 02:49:54;;;;;;;34.38;17.25;;;;;;;11.96;100.00;98266.31;5076945;28;20024;-78
2023/10/21 02:52:27;;;;;;;35.63;16.58;;;;;;;11.95;100.00;98264.03;5076297;28;20032;-77
2023/10/21 02:54:52;;;;;;;38.53;16.58;;;;;;;11.92;100.00;98265.91;5076210;28;20024;-79
2023/10/21 02:57:23;;;;;;;35.47;17.23;;;;;;;11.91;100.00;98267.25;5055486;28;20040;-78
2023/10/21 02:59:48;;;;;;;37.58;17.42;;;;;;;11.91;100.00;98258.66;5044696;28;20033;-77
2023/10/21 03:02:13;;;;;;;34.65;16.92;;;;;;;11.92;100.00;98256.53;5056009;28;20036;-78
2023/10/21 03:04:42;;;;;;;31.73;15.85;;;;;;;11.83;100.00;98235.63;5054712;28;20041;-78
2023/10/21 03:07:07;;;;;;;36.15;15.95;;;;;;;11.85;100.00;98246.53;5055627;28;20102;-77
2023/10/21 03:09:34;;;;;;;34.55;15.30;;;;;;;11.92;100.00;98268.75;5055685;28;20041;-77
2023/10/21 03:11:59;;;;;;;33.58;16.30;;;;;;;11.86;100.00;98262.41;5054241;28;20386;-77
2023/10/21 03:14:26;;;;;;;30.33;15.93;;;;;;;11.87;100.00;98275.38;5053561;28;20064;-80
2023/10/21 03:16:54;;;;;;;29.65;15.75;;;;;;;11.84;100.00;98282.97;5055554;28;20545;-77
2023/10/21 03:19:20;;;;;;;32.88;16.35;;;;;;;11.86;100.00;98273.06;5054942;28;20024;-80
2023/10/21 03:21:47;;;;;;;28.38;14.55;;;;;;;11.89;100.00;98274.81;5053797;28;20025;-77
2023/10/21 03:24:12;;;;;;;33.85;16.48;;;;;;;11.90;100.00;98280.00;5055154;28;20107;-78
2023/10/21 03:26:38;;;;;;;35.42;16.63;;;;;;;11.91;100.00;98281.56;5054688;28;20154;-77
2023/10/21 03:29:04;;;;;;;34.28;16.33;;;;;;;11.93;100.00;98275.25;5053635;28;20486;-78
2023/10/21 03:31:31;;;;;;;32.20;16.60;;;;;;;11.93;100.00;98275.25;5053217;28;20032;-77
2023/10/21 03:33:58;;;;;;;34.33;16.80;;;;;;;11.88;100.00;98281.88;5053078;28;20087;-78
2023/10/21 03:36:24;;;;;;;31.65;16.40;;;;;;;11.86;100.00;98282.44;5036263;28;20029;-77
2023/10/21 03:38:51;;;;;;;32.50;16.67;;;;;;;11.82;100.00;98288.47;5053121;28;20029;-79
2023/10/21 03:41:17;;;;;;;35.75;16.73;;;;;;;11.81;100.00;98284.06;5052708;28;20082;-80
2023/10/21 03:43:44;;;;;;;32.78;15.77;;;;;;;11.82;100.00;98287.69;5054588;28;20035;-78
2023/10/21 03:46:14;;;;;;;35.63;17.40;;;;;;;11.72;100.00;98273.06;5069418;28;20044;-78
2023/10/21 03:48:41;;;;;;;32.63;16.52;;;;;;;11.82;100.00;98288.47;5073193;28;20115;-79
2023/10/21 03:51:10;;;;;;;31.27;15.82;;;;;;;11.83;100.00;98301.47;5072876;28;20389;-77
2023/10/21 03:53:48;;;;;;;34.08;16.08;;;;;;;11.69;100.00;98284.84;5072806;28;20040;-77
2023/10/21 03:56:14;;;;;;;30.98;15.52;;;;;;;11.88;100.00;98305.53;5072604;28;20043;-78
2023/10/21 03:58:40;;;;;;;29.00;16.75;;;;;;;11.90;100.00;98294.31;5056106;28;20065;-80
2023/10/21 04:01:06;;;;;;;36.97;16.35;;;;;;;11.91;100.00;98293.00;5056544;28;20024;-77
2023/10/21 04:03:33;;;;;;;32.28;16.15;;;;;;;11.93;100.00;98289.56;5056000;28;20025;-79
2023/10/21 04:05:59;;;;;;;38.45;20.40;;;;;;;11.93;100.00;98296.06;5060188;28;20027;-79
2023/10/21 04:08:40;;;;;;;38.45;20.10;;;;;;;11.92;100.00;98291.66;5072569;28;20478;-79
2023/10/21 04:11:06;;;;;;;40.72;20.30;;;;;;;11.95;100.00;98290.56;5074167;28;20055;-79
2023/10/21 04:13:33;;;;;;;35.95;17.95;;;;;;;11.88;100.00;98273.28;5074260;28;20114;-80
2023/10/21 04:16:00;;;;;;;42.63;18.48;;;;;;;11.96;100.00;98299.94;5072788;28;20115;-78
2023/10/21 04:18:27;;;;;;;34.28;17.55;;;;;;;11.95;100.00;98298.38;5073869;28;20403;-78
2023/10/21 04:21:03;;;;;;;39.22;18.10;;;;;;;11.97;100.00;98295.72;5073975;28;20037;-78
2023/10/21 04:23:31;;;;;;;36.42;18.85;;;;;;;11.96;100.00;98308.50;5070765;28;20086;-79
2023/10/21 04:25:57;;;;;;;39.58;17.38;;;;;;;11.87;100.00;98308.94;5072276;28;20031;-78
2023/10/21 04:28:23;;;;;;;36.28;17.33;;;;;;;11.98;100.00;98340.19;5073782;28;20024;-77
2023/10/21 04:30:49;;;;;;;33.58;18.38;;;;;;;11.97;100.00;98350.88;5073290;28;20097;-78
2023/10/21 04:33:15;;;;;;;31.02;16.85;;;;;;;11.98;100.00;98358.16;5072198;28;20032;-77
2023/10/21 04:35:40;;;;;;;38.78;17.35;;;;;;;12.02;100.00;98361.44;5073190;28;20430;-80
2023/10/21 04:38:09;;;;;;;40.90;17.52;;;;;;;12.03;100.00;98353.63;5055513;28;20119;-79
2023/10/21 04:40:34;;;;;;;42.60;18.50;;;;;;;11.98;100.00;98358.16;5072412;28;20028;-79
2023/10/21 04:43:03;;;;;;;43.80;18.83;;;;;;;12.03;100.00;98362.22;5070752;28;20040;-78
2023/10/21 04:45:29;;;;;;;41.40;17.85;;;;;;;12.06;100.00;98373.34;5073389;28;20473;-79
2023/10/21 04:47:56;;;;;;;45.78;18.48;;;;;;;12.07;100.00;98376.97;5071659;28;20032;-78
2023/10/21 04:50:23;;;;;;;41.63;17.35;;;;;;;12.08;100.00;98378.53;5073371;28;20020;-77
2023/10/21 04:52:48;;;;;;;40.35;17.20;;;;;;;12.10;100.00;98387.34;5075948;28;20071;-80
2023/10/21 04:55:14;;;;;;;44.42;19.63;;;;;;;12.12;100.00;98394.03;5077223;28;20067;-80
2023/10/21 04:57:39;;;;;;;44.72;18.88;;;;;;;12.18;100.00;98411.88;5076043;28;20099;-81
2023/10/21 05:00:10;;;;;;;40.05;17.95;;;;;;;12.14;100.00;98404.97;5077464;28;20024;-80
2023/10/21 05:02:36;;;;;;;43.58;19.20;;;;;;;12.18;100.00;98399.66;5076409;28;20497;-78
2023/10/21 05:05:03;;;;;;;38.60;18.33;;;;;;;12.22;100.00;98405.81;5077284;28;20465;-81
2023/10/21 05:07:28;;;;;;;43.67;18.40;;;;;;;12.24;100.00;98414.66;5075874;28;20142;-78
2023/10/21 05:09:54;;;;;;;35.55;16.77;;;;;;;12.29;100.00;98428.09;5077178;28;20486;-79
2023/10/21 05:12:20;;;;;;;43.55;18.85;;;;;;;12.28;100.00;98427.31;5074875;28;20149;-78
2023/10/21 05:14:45;;;;;;;37.00;17.88;;;;;;;12.32;100.00;98424.13;5076924;28;20461;-79
2023/10/21 05:17:15;;;;;;;42.28;18.13;;;;;;;12.34;100.00;98426.44;5075251;28;20044;-79
2023/10/21 05:19:40;;;;;;;35.03;16.75;;;;;;;12.34;100.00;98418.63;5065435;28;20049;-80
2023/10/21 05:22:06;;;;;;;40.15;18.80;;;;;;;12.35;100.00;98419.38;5057772;28;20108;-79
2023/10/21 05:24:32;;;;;;;35.60;17.88;;;;;;;12.35;100.00;98420.16;5057129;28;20021;-77
2023/10/21 05:26:58;;;;;;;35.15;17.48;;;;;;;12.34;100.00;98418.63;5060384;28;20489;-80
2023/10/21 05:29:24;;;;;;;44.40;18.52;;;;;;;12.39;100.00;98428.44;5058098;28;20036;-78
2023/10/21 05:31:51;;;;;;;37.47;17.30;;;;;;;12.38;100.00;98439.13;5076869;28;20032;-79
2023/10/21 05:34:18;;;;;;;37.00;17.00;;;;;;;12.32;100.00;98454.84;5075378;28;20528;-79
2023/10/21 05:36:52;;;;;;;35.55;17.05;;;;;;;12.36;100.00;98473.28;5075298;28;20645;-77
2023/10/21 05:39:18;;;;;;;35.65;17.55;;;;;;;12.34;100.00;98478.00;5092348;28;20040;-79
2023/10/21 05:41:43;;;;;;;32.42;16.63;;;;;;;12.31;100.00;98474.13;5104276;28;20398;-77
2023/10/21 05:44:12;;;;;;;28.25;15.68;;;;;;;12.32;100.00;98489.97;5076178;28;20024;-79
2023/10/21 05:46:37;;;;;;;33.60;16.42;;;;;;;12.33;100.00;98488.66;5076588;28;20021;-80
2023/10/21 05:49:04;;;;;;;30.95;17.20;;;;;;;12.35;100.00;98494.63;5076395;28;20105;-80
2023/10/21 05:51:31;;;;;;;33.38;17.40;;;;;;;12.26;100.00;98483.59;5083734;28;20028;-78
2023/10/21 05:53:58;;;;;;;28.10;15.70;;;;;;;12.27;100.00;98494.50;5076557;28;20033;-80
2023/10/21 05:56:25;;;;;;;36.17;16.65;;;;;;;12.26;100.00;98501.53;5058609;28;20037;-81
2023/10/21 05:58:50;;;;;;;28.88;15.70;;;;;;;12.29;100.00;98505.41;5075430;28;20063;-81
2023/10/21 06:01:17;;;;;;;31.75;15.95;;;;;;;12.30;100.00;98517.66;5075609;28;20142;-81
2023/10/21 06:03:43;;;;;;;34.33;16.25;;;;;;;12.29;100.00;98511.16;5076004;28;20561;-80
2023/10/21 06:06:08;;;;;;;30.20;15.82;;;;;;;12.29;100.00;98508.28;5076746;28;20060;-82
2023/10/21 06:08:35;;;;;;;34.92;16.20;;;;;;;12.32;100.00;98515.75;5076704;28;20443;-82
2023/10/21 06:11:00;;;;;;;30.27;16.27;;;;;;;12.30;100.00;98514.78;5074983;28;20031;-81
2023/10/21 06:13:25;;;;;;;29.25;15.60;;;;;;;12.27;100.00;98520.28;5075720;28;20451;-81
2023/10/21 06:15:52;;;;;;;28.20;16.23;;;;;;;12.32;100.00;98520.72;5075756;28;20098;-80
2023/10/21 06:18:19;;;;;;;37.92;17.38;;;;;;;12.34;100.00;98518.09;5074723;28;20040;-80
2023/10/21 06:20:51;;;;;;;34.92;16.20;;;;;;;12.39;100.00;98531.56;5077026;28;20120;-83
2023/10/21 06:23:18;;;;;;;35.67;17.05;;;;;;;12.42;100.00;98530.47;5077085;28;20070;-81
2023/10/21 06:25:45;;;;;;;32.47;17.17;;;;;;;12.44;100.00;98534.34;5076579;28;20382;-78
2023/10/21 06:28:12;;;;;;;30.92;16.88;;;;;;;12.47;100.00;98538.94;5081002;28;20080;-81
2023/10/21 06:30:40;;;;;;;31.52;16.23;;;;;;;12.52;100.00;98551.63;5118989;28;20036;-84
2023/10/21 06:33:07;;;;;;;30.40;15.70;;;;;;;12.56;100.00;98552.84;5090258;28;20028;-83
2023/10/21 06:35:33;;;;;;;30.23;17.83;;;;;;;12.55;100.00;98559.88;5104449;28;20036;-82
2023/10/21 06:37:58;;;;;;;31.92;16.13;;;;;;;12.62;100.00;98570.69;5083488;28;20062;-78
2023/10/21 06:40:25;;;;;;;33.47;16.38;;;;;;;12.63;100.00;98574.34;5065115;28;20458;-80
2023/10/21 06:42:51;;;;;;;32.90;14.75;;;;;;;12.61;100.00;98577.75;5058918;28;20037;-83
2023/10/21 06:45:17;;;;;;;35.10;16.83;;;;;;;12.62;100.00;98576.44;5061419;28;20044;-85
2023/10/21 06:47:45;;;;;;;32.90;17.13;;;;;;;12.65;100.00;98577.44;5067221;28;20045;-83
2023/10/21 06:50:25;;;;;;;34.83;17.45;;;;;;;12.76;100.00;98587.91;5083343;28;20032;-84
2023/10/21 06:52:52;;;;;;;45.40;20.45;;;;;;;12.57;100.00;98554.38;5095306;28;20134;-88
2023/10/21 06:55:20;;;;;;;45.50;26.02;;;;;;;12.84;100.00;98601.03;5083046;28;20032;-81
2023/10/21 06:57:47;;;;;;;49.53;25.75;;;;;;;12.90;100.00;98598.06;5059620;28;20064;-86
2023/10/21 07:00:16;;;;;;;42.85;23.60;;;;;;;12.96;100.00;98608.09;5079279;28;20482;-90
2023/10/21 07:02:45;;;;;;;48.07;22.20;;;;;;;13.01;100.00;98617.91;5075766;28;20043;-87
2023/10/21 07:05:11;;;;;;;37.97;19.08;;;;;;;13.06;100.00;98632.13;5081053;28;20154;-89
2023/10/21 07:07:38;;;;;;;46.72;22.40;;;;;;;13.12;100.00;98634.91;5080754;28;20067;-87
2023/10/21 07:10:05;;;;;;;43.13;21.60;;;;;;;13.20;100.00;98632.13;5077475;28;20036;-87
2023/10/21 07:12:32;;;;;;;40.92;22.55;;;;;;;13.43;100.00;98638.97;5078566;28;20032;-87
2023/10/21 07:14:57;;;;;;;37.42;19.05;;;;;;;13.63;100.00;98646.91;5076948;28;20101;-80
2023/10/21 07:17:25;;;;;;;37.28;18.92;;;;;;;13.78;100.00;98654.94;5076147;28;20028;-80
2023/10/21 07:19:51;;;;;;;29.00;16.88;;;;;;;13.90;100.00;98653.34;5075116;28;20036;-83
2023/10/21 07:22:16;;;;;;;31.10;18.23;;;;;;;14.01;100.00;98661.72;5076217;28;20081;-79
2023/10/21 07:24:42;;;;;;;37.35;18.75;;;;;;;14.10;100.00;98667.00;5075833;28;20032;-81
2023/10/21 07:27:08;;;;;;;35.28;18.35;;;;;;;14.14;100.00;98664.53;5073669;28;20113;-79
2023/10/21 07:29:33;;;;;;;31.63;18.70;;;;;;;14.18;100.00;98661.34;5075970;28;20033;-83
2023/10/21 07:32:00;;;;;;;31.70;16.50;;;;;;;14.21;100.00;98672.50;5073955;28;20040;-83
2023/10/21 07:34:26;;;;;;;38.80;17.90;;;;;;;14.34;100.00;98675.31;5075567;28;20138;-81
2023/10/21 07:36:51;;;;;;;35.70;17.95;;;;;;;14.57;100.00;98669.03;5074222;28;20052;-82
2023/10/21 07:39:18;;;;;;;30.25;16.52;;;;;;;14.86;100.00;98673.53;5075695;28;20389;-81
2023/10/21 07:41:44;;;;;;;33.22;18.42;;;;;;;15.16;100.00;98667.22;5075752;28;20032;-79
2023/10/21 07:44:11;;;;;;;27.92;16.02;;;;;;;15.72;100.00;98682.91;5076512;28;20455;-84
2023/10/21 07:46:37;;;;;;;27.40;16.35;;;;;;;16.14;100.00;98658.31;5075669;28;20119;-86
2023/10/21 07:49:06;;;;;;;28.92;15.82;;;;;;;16.92;100.00;98670.97;5075133;28;20145;-85
2023/10/21 07:51:32;;;;;;;24.40;14.95;;;;;;;17.80;100.00;98685.66;5074425;28;20028;-84
2023/10/21 07:53:59;;;;;;;24.98;16.13;;;;;;;18.55;100.00;98678.78;5064961;28;20094;-87
2023/10/21 07:56:25;;;;;;;26.13;16.13;;;;;;;19.15;100.00;98676.78;5056554;28;20037;-87
2023/10/21 07:58:51;;;;;;;24.70;15.57;;;;;;;19.64;100.00;98681.72;5057299;28;20044;-89
2023/10/21 08:01:19;;;;;;;27.15;15.23;;;;;;;20.09;100.00;98694.94;5074905;28;20078;-85
2023/10/21 08:03:45;;;;;;;23.42;15.70;;;;;;;20.40;100.00;98687.34;5075897;28;20566;-88
2023/10/21 08:06:10;;;;;;;25.75;16.80;;;;;;;20.77;100.00;98688.22;5074871;28;20024;-86
2023/10/21 08:08:37;;;;;;;25.42;16.63;;;;;;;21.04;100.00;98688.16;5076679;28;20466;-87
2023/10/21 08:11:03;;;;;;;27.55;16.58;;;;;;;21.25;100.00;98690.53;5074349;28;20121;-88
2023/10/21 08:13:30;;;;;;;24.33;16.30;;;;;;;21.44;100.00;98702.19;5077530;28;20016;-88
2023/10/21 08:15:57;;;;;;;25.58;15.77;;;;;;;21.63;100.00;98692.81;5075723;28;20489;-86
2023/10/21 08:18:24;;;;;;;24.33;16.48;;;;;;;21.76;100.00;98694.50;5076756;28;20035;-94
2023/10/21 08:21:12;;;;;;;28.40;17.15;;;;;;;21.83;100.00;98700.16;5075541;28;20096;-90
2023/10/21 08:23:41;;;;;;;29.02;15.90;;;;;;;21.81;100.00;98693.41;5075023;28;20036;-91
2023/10/21 08:26:07;;;;;;;30.63;16.65;;;;;;;21.74;100.00;98712.53;5077560;28;20032;-91
2023/10/21 08:28:32;;;;;;;25.45;16.65;;;;;;;21.65;100.00;98711.16;5076885;28;20035;-90
2023/10/21 08:30:59;;;;;;;22.88;16.13;;;;;;;21.60;100.00;98708.53;5078839;28;20124;-89
2023/10/21 08:33:26;;;;;;;23.23;16.65;;;;;;;21.62;100.00;98714.53;5079204;28;20024;-87
2023/10/21 08:35:52;;;;;;;22.20;16.35;;;;;;;21.62;100.00;98717.44;5080247;28;20509;-87
2023/10/21 08:38:19;;;;;;;28.15;17.85;;;;;;;21.58;100.00;98717.88;5077628;28;20036;-85
2023/10/21 08:40:47;;;;;;;26.95;17.40;;;;;;;21.44;100.00;98719.66;5081549;28;20417;-86
2023/10/21 08:43:21;;;;;;;24.13;16.77;;;;;;;21.44;100.00;98737.09;5078243;28;20017;-87
2023/10/21 08:45:50;;;;;;;25.05;15.85;;;;;;;21.30;100.00;98738.88;5063625;28;20028;-86
2023/10/21 08:48:17;;;;;;;29.45;16.40;;;;;;;20.97;100.00;98735.53;5078961;28;20024;-85
2023/10/21 08:50:48;;;;;;;27.38;16.63;;;;;;;20.84;100.00;98752.59;5084941;28;20040;-86
2023/10/21 08:53:15;;;;;;;25.52;17.35;;;;;;;20.77;100.00;98754.22;5089718;28;20074;-83
2023/10/21 08:55:41;;;;;;;26.65;17.08;;;;;;;20.66;100.00;98758.41;5073720;28;20486;-85
2023/10/21 08:58:08;;;;;;;27.65;17.95;;;;;;;20.69;100.00;98762.25;5084619;28;20040;-85
2023/10/21 09:00:56;;;;;;;29.80;17.08;;;;;;;20.61;100.00;98747.84;5098381;28;20484;-86
2023/10/21 09:03:32;;;;;;;25.65;16.70;;;;;;;20.68;100.00;98767.28;5076847;28;20043;-85
2023/10/21 09:06:10;;;;;;;27.45;17.13;;;;;;;20.74;100.00;98764.91;5060986;28;20097;-85
2023/10/21 09:08:37;;;;;;;27.00;18.15;;;;;;;20.83;100.00;98775.06;5105613;28;20083;-82
2023/10/21 09:11:07;;;;;;;28.30;17.65;;;;;;;20.73;100.00;98751.00;5092185;28;20027;-81
2023/10/21 09:13:42;;;;;;;24.52;18.25;;;;;;;20.81;100.00;98764.03;5093312;28;20031;-83
2023/10/21 09:16:25;;;;;;;25.17;16.90;;;;;;;20.88;100.00;98768.22;5106231;28;20061;-83
2023/10/21 09:18:59;;;;;;;26.50;18.13;;;;;;;20.93;100.00;98769.31;5105282;28;20024;-82
2023/10/21 09:21:36;;;;;;;24.85;17.40;;;;;;;20.95;100.00;98764.41;5103864;28;20107;-83
2023/10/21 09:24:05;;;;;;;26.10;16.73;;;;;;;20.99;100.00;98776.34;5097268;28;20028;-84
2023/10/21 09:26:36;;;;;;;27.67;16.98;;;;;;;21.05;100.00;98771.03;5060892;28;20097;-82
2023/10/21 09:29:14;;;;;;;29.67;18.02;;;;;;;21.11;100.00;98777.34;5092772;28;20023;-82
2023/10/21 09:31:59;;;;;;;26.40;16.67;;;;;;;21.19;100.00;98783.78;5060904;28;20032;-83
2023/10/21 09:34:31;;;;;;;30.77;16.52;;;;;;;21.21;100.00;98789.78;5094312;28;20390;-82
2023/10/21 09:37:04;;;;;;;31.63;16.48;;;;;;;21.25;100.00;98786.41;5076622;28;20047;-83
2023/10/21 09:39:48;;;;;;;23.27;15.18;;;;;;;21.25;100.00;98795.91;5097710;28;20160;-83
2023/10/21 09:42:19;;;;;;;23.63;15.48;;;;;;;21.22;100.00;98788.41;5098292;28;20020;-82
2023/10/21 09:44:46;;;;;;;24.73;15.43;;;;;;;21.22;100.00;98791.31;5063262;28;20086;-83
2023/10/21 09:47:15;;;;;;;26.00;15.82;;;;;;;21.24;100.00;98793.59;5063038;28;20086;-83
2023/10/21 09:49:43;;;;;;;23.33;15.48;;;;;;;21.23;100.00;98783.38;5079864;28;20027;-82
2023/10/21 09:52:15;;;;;;;22.48;15.35;;;;;;;21.29;100.00;98792.56;5079687;28;20096;-82
2023/10/21 09:54:52;;;;;;;27.38;15.40;;;;;;;21.31;100.00;98798.53;5079444;28;20442;-81
2023/10/21 09:57:19;;;;;;;23.63;14.88;;;;;;;21.23;100.00;98795.00;5079455;28;20046;-82
2023/10/21 09:59:46;;;;;;;24.23;15.65;;;;;;;21.22;100.00;98797.13;5097440;28;20077;-82
2023/10/21 10:02:13;;;;;;;27.70;15.98;;;;;;;21.10;100.00;98796.13;5078896;28;20055;-82
2023/10/21 10:04:47;;;;;;;22.83;15.75;;;;;;;21.07;100.00;98808.22;5079230;28;20024;-81
2023/10/21 10:07:19;;;;;;;30.92;17.23;;;;;;;20.93;100.00;98804.94;5097026;28;20081;-83
2023/10/21 10:09:46;;;;;;;28.02;17.20;;;;;;;20.90;100.00;98817.72;5063654;28;20074;-81
2023/10/21 10:12:20;;;;;;;25.08;16.77;;;;;;;20.84;100.00;98816.47;5063400;28;20028;-83
2023/10/21 10:14:46;;;;;;;29.63;17.95;;;;;;;20.78;100.00;98829.13;5046088;28;20101;-82
2023/10/21 10:17:13;;;;;;;26.13;17.88;;;;;;;20.71;100.00;98829.22;5079313;28;20024;-83
2023/10/21 10:19:40;;;;;;;29.00;18.75;;;;;;;20.58;100.00;98821.63;5079373;28;20026;-84
2023/10/21 10:22:41;;;;;;;27.70;17.48;;;;;;;20.59;100.00;98826.06;5079615;28;20028;-83
2023/10/21 10:25:11;;;;;;;23.85;17.23;;;;;;;20.45;100.00;98810.34;5018697;28;20021;-83
2023/10/21 10:27:40;;;;;;;21.65;15.13;;;;;;;20.56;100.00;98829.38;5086180;28;20036;-83
2023/10/21 10:30:20;;;;;;;23.02;15.60;;;;;;;20.64;100.00;98835.88;5079037;28;20477;-81
2023/10/21 10:32:49;;;;;;;25.58;15.68;;;;;;;20.66;100.00;98833.13;5097269;28;20487;-82
2023/10/21 10:35:32;;;;;;;28.15;15.98;;;;;;;20.68;100.00;98842.78;5063420;28;20120;-82
2023/10/21 10:37:59;;;;;;;22.50;14.95;;;;;;;20.70;100.00;98851.66;5077752;28;20020;-84
2023/10/21 10:41:15;;;;;;;21.25;13.80;;;;;;;20.69;100.00;98849.34;5093233;28;20024;-84
2023/10/21 10:43:59;;;;;;;23.50;14.48;;;;;;;20.64;100.00;98845.34;5016409;28;20052;-86
2023/10/21 10:46:25;;;;;;;25.17;15.10;;;;;;;20.51;100.00;98821.69;5081451;28;20123;-89
2023/10/21 10:48:52;;;;;;;21.83;13.50;;;;;;;20.63;100.00;98851.75;5081151;28;20094;-85
2023/10/21 10:51:21;;;;;;;19.55;13.35;;;;;;;20.61;100.00;98858.16;5061812;28;20036;-84
2023/10/21 10:53:55;;;;;;;25.02;14.13;;;;;;;20.58;100.00;98858.59;5046560;28;20030;-86
2023/10/21 10:56:21;;;;;;;24.40;15.05;;;;;;;20.52;100.00;98853.03;5097122;28;20055;-88
2023/10/21 10:58:48;;;;;;;20.73;13.48;;;;;;;20.50;100.00;98861.56;5096425;28;20039;-86
2023/10/21 11:01:28;;;;;;;23.08;14.50;;;;;;;20.54;100.00;98869.84;5080419;28;20115;-85
2023/10/21 11:03:58;;;;;;;20.23;13.95;;;;;;;20.52;100.00;98873.34;5063582;28;20067;-84
2023/10/21 11:06:35;;;;;;;24.45;13.30;;;;;;;20.50;100.00;98875.31;5078243;28;20400;-78
2023/10/21 11:09:30;;;;;;;19.58;12.70;;;;;;;20.46;100.00;98878.63;5077829;28;20081;-82
2023/10/21 11:11:54;;;;;;;20.15;11.57;;;;;;;20.46;100.00;98881.53;5099103;28;20039;-82
2023/10/21 11:14:24;;;;;;;19.98;12.68;;;;;;;20.40;100.00;98881.78;5099449;28;20024;-83